ADDS METAR Data INFO
IDs: Format: Raw Decoded Include TAF

Data at: 1206 UTC 21 Jun 2018

KSGT 211156Z AUTO 23007KT 10SM OVC008 24/23 A2988 RMK AO2 CIG 006V011 SLP118 60033 70037 T02390228 10239 20217 53010
KSGT 211114Z AUTO 23009KT 9SM OVC010 23/23 A2988 RMK AO2
KSGT 211056Z AUTO 22009KT 10SM SCT009 OVC013 23/23 A2987 RMK AO2 SLP114 P0001 T02330228
KSGT 211044Z AUTO 22009KT 10SM SCT007 OVC013 23/23 A2987 RMK AO2 P0001
KSGT 211031Z AUTO 22009KT 10SM BKN007 BKN013 OVC019 23/23 A2986 RMK AO2 CIG 004V011
KSGT 211022Z AUTO 22008KT 9SM SCT007 BKN013 OVC019 23/23 A2986 RMK AO2
KSGT 211009Z AUTO 21008KT 9SM SCT011 OVC019 23/22 A2985 RMK AO2
KSGT 210956Z AUTO 21009KT 9SM BKN011 OVC021 23/22 A2985 RMK AO2 SLP106 T02280222
KSGT 210906Z AUTO 20009KT 7SM BKN013 OVC032 23/22 A2985 RMK AO2
KSGT 210856Z AUTO 19009KT 8SM SCT013 BKN030 OVC037 23/22 A2985 RMK AO2 SLP109 60032 T02280222 56014
KSGT 210756Z AUTO 18008KT 10SM FEW008 BKN044 BKN055 22/22 A2986 RMK AO2 RAE07 SLP111 P0000 T02220217
KSGT 210747Z AUTO 18007KT 10SM SCT010 BKN046 OVC055 22/22 A2986 RMK AO2 RAE07 P0000
KSGT 210656Z AUTO 22008KT 10SM -RA SCT008 OVC013 22/21 A2988 RMK AO2 SLP115 P0032 T02170211
KSGT 210643Z AUTO 24007KT 5SM -RA BR FEW006 BKN012 OVC017 22/21 A2989 RMK AO2 P0032
KSGT 210636Z AUTO 24008KT 2 1/2SM -RA BR FEW008 BKN018 OVC024 22/21 A2989 RMK AO2 P0031
KSGT 210632Z AUTO 19008KT 2 1/2SM +RA BR BKN014 OVC024 22/21 A2988 RMK AO2 CIG 008V020 P0028
KSGT 210556Z AUTO 19005KT 10SM -RA BKN020 OVC095 22/21 A2990 RMK AO2 SLP121 P0001 60004 T02220206 10267 20217 402890217 56001
KSGT 210456Z AUTO 16008KT 10SM -RA CLR 22/21 A2988 RMK AO2 RAB24 SLP115 P0000 T02220206
KSGT 210356Z AUTO 15005KT 10SM CLR 22/21 A2990 RMK AO2 RAE52 SLP122 P0000 T02220206
KSGT 210256Z AUTO 17003KT 10SM -RA BKN060 BKN075 OVC110 22/20 A2993 RMK AO2 SLP133 P0001 60003 T02220200 50010
KSGT 210156Z AUTO 19006KT 10SM -RA SCT055 OVC090 22/21 A2993 RMK AO2 SLP135 P0002 T02220206
KSGT 210056Z AUTO 19009KT 10SM -RA BKN065 OVC080 25/21 A2992 RMK AO2 RAB45 SLP128 P0000 T02500206
KSGT 202356Z AUTO 21007KT 10SM BKN095 27/18 A2990 RMK AO2 SLP122 60000 T02670183 10283 20256 55003
KSGT 202256Z AUTO 20008KT 10SM FEW100 27/22 A2989 RMK AO2 SLP121 T02670222
KSGT 202203Z AUTO 20007KT 10SM FEW002 27/23 A2990 RMK AO2
KSGT 202156Z AUTO 20008KT 10SM CLR 27/23 A2990 RMK AO2 RAE13 SLP124 P0000 T02670233
KSGT 202056Z AUTO 24011KT 10SM -RA SCT014 SCT026 BKN036 26/23 A2991 RMK AO2 LTG DSNT E TSB24E39 SLP125 P0000 60000 T02610233 56015
KSGT 202045Z AUTO 19008KT 10SM -RA FEW018 BKN036 BKN042 26/23 A2991 RMK AO2 LTG DSNT E TSB24E39 P0000
KSGT 202030Z AUTO 18011KT 10SM VCTS -RA FEW018 SCT026 BKN035 26/23 A2991 RMK AO2 LTG DSNT E AND SE TSB24 P0000
KSGT 202007Z AUTO 21009KT 10SM FEW018 SCT025 BKN060 28/24 A2991 RMK AO2 LTG DSNT E AND SE RAE03 P0000
KSGT 201956Z AUTO 21008KT 10SM -RA SCT018 BKN023 OVC055 27/24 A2992 RMK AO2 RAB48 SLP129 P0000 T02720239
KSGT 201943Z AUTO 22008KT 10SM SCT016 BKN026 OVC060 28/24 A2992 RMK AO2
KSGT 201856Z AUTO 21007KT 10SM FEW018 28/24 A2993 RMK AO2 RAE27 SLP135 P0000 T02830239
KSGT 201756Z AUTO 21008KT 10SM -RA FEW022 SCT029 28/23 A2995 RMK AO2 RAB36 SLP141 P0000 60000 T02830233 10289 20244 56009
KSGT 201656Z AUTO 16006KT 10SM SCT020 SCT120 28/23 A2995 RMK AO2 SLP142 T02830228
KSGT 201636Z AUTO 17008KT 10SM FEW001 SCT020 BKN032 28/23 A2996 RMK AO2
KSGT 201556Z AUTO 20008KT 10SM FEW100 28/23 A2997 RMK AO2 SLP146 T02780228
KSGT 201456Z AUTO 20007KT 10SM BKN042 OVC110 27/22 A2998 RMK AO2 SLP151 T02670222 51008
KSGT 201356Z AUTO 18008KT 10SM BKN100 26/22 A2998 RMK AO2 SLP150 T02610222
KSGT 201256Z AUTO 17008KT 10SM OVC095 26/22 A2996 RMK AO2 SLP144 T02560222
KSGT 201156Z AUTO 16006KT 10SM OVC110 24/22 A2996 RMK AO2 SLP142 60000 T02440222 10250 20239 52003
KSGT 201056Z AUTO 15004KT 10SM OVC100 24/22 A2995 RMK AO2 SLP141 T02440217
KSGT 200956Z AUTO 15004KT 10SM OVC095 24/22 A2995 RMK AO2 RAB09E18 SLP139 P0000 T02440217
KSGT 200856Z AUTO 18003KT 10SM OVC080 24/22 A2995 RMK AO2 RAB37E53 SLP138 P0000 60000 T02390217 56010
KSGT 200756Z AUTO 23005KT 10SM BKN085 OVC110 24/22 A2995 RMK AO2 RAB24E55 SLP140 P0000 T02390217
KSGT 200656Z AUTO 23009KT 10SM BKN090 25/21 A2996 RMK AO2 SLP145 T02500206
KSGT 200556Z AUTO 21008KT 10SM OVC085 24/21 A2997 RMK AO2 SLP148 T02440211 10311 20244 403280228 50000
KSGT 200456Z AUTO 21011KT 10SM FEW110 25/21 A2999 RMK AO2 SLP152 T02500211
KSGT 200356Z AUTO 17014KT 10SM BKN085 BKN110 27/22 A2999 RMK AO2 SLP152 T02720217
KSGT 200256Z AUTO 15007KT 10SM CLR 27/22 A2997 RMK AO2 SLP149 T02670217 55003
KSGT 200156Z AUTO 15007KT 10SM OVC100 28/22 A2997 RMK AO2 SLP146 T02830217
KSGT 200056Z AUTO 15009KT 10SM OVC100 29/21 A2997 RMK AO2 SLP148 T02940211